Time;durP1;ratioP1;P1;durP2;ratioP2;P2;SDS_P1;SDS_P2;PMS_P1;PMS_P2;Temp;Humidity;BMP_temperature;BMP_pressure;BME280_temperature;BME280_humidity;BME280_pressure;Samples;Min_cycle;Max_cycle;Signal;HPM_P1;HPM_P2
2022/05/01 00:03:30;;;;;;;47.45;28.87;;;;;;;8.68;77.37;100730.16;2901690;81;21093;-80
2022/05/01 00:07:16;;;;;;;35.03;26.05;;;;;;;8.57;77.88;100726.03;2908064;81;21038;-80
2022/05/01 00:11:18;;;;;;;42.55;28.42;;;;;;;8.46;78.74;100719.25;2917044;80;21054;-81
2022/05/01 00:15:19;;;;;;;50.98;33.42;;;;;;;8.44;79.09;100713.55;2910294;81;21086;-80
2022/05/01 00:19:21;;;;;;;39.83;25.60;;;;;;;8.57;78.89;100710.12;2904032;81;21063;-80
2022/05/01 00:23:22;;;;;;;47.13;25.27;;;;;;;8.70;78.53;100714.12;2918115;80;21645;-79
2022/05/01 00:27:23;;;;;;;33.92;24.55;;;;;;;8.77;78.09;100713.23;2862387;81;21484;-80
2022/05/01 00:31:25;;;;;;;30.00;20.92;;;;;;;8.76;77.63;100706.23;2887878;81;21055;-80
2022/05/01 00:39:46;;;;;;;26.02;19.35;;;;;;;8.69;77.72;100701.81;2886869;81;21857;-80
2022/05/01 00:44:12;;;;;;;36.98;22.07;;;;;;;8.60;78.07;100704.61;2893564;81;21024;-80
2022/05/01 00:48:14;;;;;;;34.67;24.50;;;;;;;8.54;78.05;100694.42;2916613;81;21040;-80
2022/05/01 00:52:15;;;;;;;31.45;22.10;;;;;;;8.47;78.67;100701.06;2918298;81;21030;-79
2022/05/01 00:56:16;;;;;;;32.00;19.95;;;;;;;8.37;78.17;100698.17;2922827;79;21020;-80
2022/05/01 01:00:19;;;;;;;32.93;20.60;;;;;;;8.32;77.77;100696.27;2891489;80;21327;-80
2022/05/01 01:04:20;;;;;;;33.92;18.35;;;;;;;8.28;77.80;100691.67;2874942;82;21546;-80
2022/05/01 01:08:22;;;;;;;26.45;20.05;;;;;;;8.34;77.74;100697.89;2883126;80;21087;-80
2022/05/01 01:16:44;;;;;;;35.92;21.60;;;;;;;8.35;76.60;100694.74;2854291;82;21072;-80
2022/05/01 01:20:45;;;;;;;30.70;21.55;;;;;;;8.27;76.61;100700.09;2811558;81;21067;-80
2022/05/01 01:24:47;;;;;;;38.45;24.00;;;;;;;8.17;77.16;100703.44;2889425;81;21028;-80
2022/05/01 01:28:49;;;;;;;50.35;28.65;;;;;;;8.11;77.62;100694.95;2875142;82;21046;-80
2022/05/01 01:32:51;;;;;;;41.15;23.77;;;;;;;8.07;77.26;100690.80;2847789;81;21028;-80
2022/05/01 01:36:53;;;;;;;24.10;18.92;;;;;;;8.08;77.25;100691.64;2845844;82;21024;-80
2022/05/01 01:40:58;;;;;;;21.60;13.98;;;;;;;8.05;77.02;100688.70;2896562;81;21012;-80
2022/05/01 01:45:01;;;;;;;25.52;16.52;;;;;;;8.03;76.68;100693.25;2873560;81;21580;-80
2022/05/01 01:49:10;;;;;;;21.33;14.55;;;;;;;7.79;76.52;100696.53;2890228;81;21060;-80
2022/05/01 01:53:11;;;;;;;18.37;11.70;;;;;;;7.58;76.13;100698.27;2819619;83;21089;-80
2022/05/01 01:57:12;;;;;;;26.82;14.98;;;;;;;7.49;75.42;100693.56;2866741;82;21050;-81
2022/05/01 02:01:13;;;;;;;23.45;18.17;;;;;;;7.42;75.19;100702.81;2893566;82;21008;-80
2022/05/01 02:05:15;;;;;;;29.63;19.35;;;;;;;7.23;75.69;100693.85;2820399;82;20993;-80
2022/05/01 02:09:17;;;;;;;23.77;16.85;;;;;;;7.14;76.13;100693.94;2868973;81;21107;-80
2022/05/01 02:13:19;;;;;;;20.75;14.58;;;;;;;7.14;76.28;100696.59;2874963;81;21067;-80
2022/05/01 02:17:20;;;;;;;23.42;16.45;;;;;;;7.12;76.30;100692.70;2900666;80;20977;-80
2022/05/01 02:21:36;;;;;;;27.25;19.73;;;;;;;7.08;76.52;100696.48;2898468;81;21007;-80
2022/05/01 02:25:40;;;;;;;27.45;20.65;;;;;;;7.09;76.43;100690.73;2883033;81;21074;-79
2022/05/01 02:29:42;;;;;;;25.70;19.92;;;;;;;7.09;76.74;100692.05;2884936;80;21742;-79
2022/05/01 02:33:43;;;;;;;24.15;19.12;;;;;;;7.05;77.47;100687.41;2898894;80;21633;-79
2022/05/01 02:37:45;;;;;;;29.70;21.23;;;;;;;7.05;78.20;100690.52;2891179;80;21066;-80
2022/05/01 02:41:46;;;;;;;27.20;19.80;;;;;;;7.02;78.92;100693.35;2875756;80;21064;-79
2022/05/01 02:45:48;;;;;;;34.48;19.98;;;;;;;7.06;79.95;100691.76;2878543;81;21023;-79
2022/05/01 02:49:49;;;;;;;27.62;20.45;;;;;;;6.99;79.83;100699.70;2881546;81;21067;-80
2022/05/01 02:53:50;;;;;;;34.30;20.88;;;;;;;6.94;79.96;100699.97;2828872;81;21080;-80
2022/05/01 02:57:51;;;;;;;29.12;17.98;;;;;;;6.89;80.02;100691.47;2874091;80;21027;-80
2022/05/01 03:01:55;;;;;;;24.05;17.50;;;;;;;6.90;79.52;100690.52;2866020;81;21077;-80
2022/05/01 03:05:58;;;;;;;30.20;17.55;;;;;;;6.83;78.93;100691.81;2899525;81;21032;-80
2022/05/01 03:09:59;;;;;;;26.55;18.95;;;;;;;6.80;79.06;100688.03;2863676;82;21055;-81
2022/05/01 03:14:00;;;;;;;25.52;19.45;;;;;;;6.84;78.32;100688.22;2884748;81;21562;-80
2022/05/01 03:22:22;;;;;;;46.45;24.35;;;;;;;6.79;77.47;100688.98;2902660;81;21026;-80
2022/05/01 03:26:25;;;;;;;35.92;23.25;;;;;;;6.76;77.62;100690.48;2887818;81;21053;-81
2022/05/01 03:30:28;;;;;;;32.50;23.50;;;;;;;6.75;78.07;100688.78;2886008;80;21030;-80
2022/05/01 03:34:29;;;;;;;32.93;23.45;;;;;;;6.71;78.17;100688.97;2889969;80;21093;-80
2022/05/01 03:38:31;;;;;;;23.55;19.75;;;;;;;6.61;78.29;100691.77;2900404;80;21039;-80
2022/05/01 03:42:32;;;;;;;30.85;19.60;;;;;;;6.57;77.97;100692.89;2885560;81;21347;-80
2022/05/01 03:46:36;;;;;;;32.15;20.82;;;;;;;6.59;77.62;100693.65;2872853;81;21049;-80
2022/05/01 03:50:38;;;;;;;35.90;21.55;;;;;;;6.59;77.89;100698.10;2896896;80;21070;-80
2022/05/01 03:54:39;;;;;;;27.87;19.70;;;;;;;6.53;78.15;100688.24;2883085;81;21538;-80
2022/05/01 03:58:40;;;;;;;27.52;19.27;;;;;;;6.58;78.31;100693.27;2913288;81;20999;-80
2022/05/01 04:02:42;;;;;;;31.93;19.75;;;;;;;6.65;78.64;100693.77;2908237;80;21026;-80
2022/05/01 04:06:44;;;;;;;31.65;22.10;;;;;;;6.78;79.24;100693.89;2904083;80;21569;-80
2022/05/01 04:10:46;;;;;;;28.47;19.20;;;;;;;6.89;79.32;100699.40;2886039;81;21609;-80
2022/05/01 04:14:47;;;;;;;34.50;23.15;;;;;;;6.98;79.86;100696.19;2922034;80;21017;-80
2022/05/01 04:18:48;;;;;;;32.63;22.02;;;;;;;7.02;80.33;100702.61;2926650;80;21003;-81
2022/05/01 04:22:50;;;;;;;33.30;21.55;;;;;;;7.34;82.56;100699.31;2919576;80;21033;-80
2022/05/01 04:26:51;;;;;;;23.27;18.00;;;;;;;7.88;83.51;100696.91;2939920;79;21082;-80
2022/05/01 04:30:52;;;;;;;33.48;20.55;;;;;;;8.32;82.01;100709.53;2925251;79;21010;-80
2022/05/01 04:34:54;;;;;;;27.17;21.87;;;;;;;8.75;81.78;100701.88;2922440;79;21069;-81
2022/05/01 04:38:55;;;;;;;26.80;19.30;;;;;;;9.26;83.51;100703.70;2856873;81;21678;-80
2022/05/01 04:43:09;;;;;;;29.82;20.85;;;;;;;9.78;81.90;100704.47;2914519;81;21040;-80
2022/05/01 04:47:10;;;;;;;35.13;24.37;;;;;;;10.22;79.86;100705.32;2909605;81;21021;-81
2022/05/01 04:51:11;;;;;;;34.50;23.42;;;;;;;10.62;76.73;100705.53;2902812;79;20975;-80
2022/05/01 04:55:12;;;;;;;42.10;22.98;;;;;;;10.81;74.70;100712.98;2912195;80;21077;-79
2022/05/01 04:59:13;;;;;;;36.53;22.93;;;;;;;10.98;74.45;100706.36;2926895;79;21180;-81
2022/05/01 05:03:15;;;;;;;28.62;21.97;;;;;;;11.28;75.51;100711.58;2912533;80;21022;-81
2022/05/01 05:07:16;;;;;;;30.37;24.52;;;;;;;11.45;74.08;100720.94;2889379;81;21018;-81
2022/05/01 05:11:17;;;;;;;32.65;24.18;;;;;;;11.69;72.37;100723.95;2921989;80;20999;-80
2022/05/01 05:15:20;;;;;;;36.38;25.10;;;;;;;11.77;71.49;100718.84;2931000;80;21976;-80
2022/05/01 05:19:21;;;;;;;33.92;23.22;;;;;;;11.82;70.60;100722.48;2926233;81;21583;-80
2022/05/01 05:23:22;;;;;;;29.57;20.82;;;;;;;11.73;71.73;100719.23;2864088;79;21090;-81
2022/05/01 05:27:27;;;;;;;26.20;22.20;;;;;;;11.78;72.43;100724.53;2892390;79;21098;-81
2022/05/01 05:31:28;;;;;;;33.28;21.73;;;;;;;12.14;72.55;100719.89;2875365;81;21001;-81
2022/05/01 05:35:29;;;;;;;31.52;23.32;;;;;;;12.47;70.29;100723.91;2924713;81;21039;-79
2022/05/01 05:39:30;;;;;;;33.83;24.52;;;;;;;12.71;72.02;100719.67;2861374;81;20981;-80
2022/05/01 05:43:32;;;;;;;39.53;25.55;;;;;;;13.08;71.31;100726.88;2927302;79;21541;-80
2022/05/01 05:47:33;;;;;;;37.15;24.72;;;;;;;13.38;70.42;100733.23;2879619;81;21046;-79
2022/05/01 05:51:34;;;;;;;28.85;22.58;;;;;;;13.91;70.54;100733.53;2891186;81;21058;-80
2022/05/01 05:55:35;;;;;;;33.45;26.07;;;;;;;14.32;69.09;100729.44;2888123;80;21070;-79
2022/05/01 05:59:37;;;;;;;29.57;22.95;;;;;;;14.93;67.29;100730.14;2889996;81;21034;-80
2022/05/01 06:03:39;;;;;;;39.78;23.52;;;;;;;15.46;64.58;100727.06;2882862;81;21042;-80
2022/05/01 06:07:40;;;;;;;29.07;21.65;;;;;;;15.82;63.09;100733.86;2855579;82;21023;-83
2022/05/01 06:11:41;;;;;;;31.20;22.55;;;;;;;15.62;60.99;100735.30;2880803;81;20994;-84
2022/05/01 06:15:43;;;;;;;35.23;23.10;;;;;;;15.36;62.09;100737.83;2909842;81;21069;-82
2022/05/01 06:19:44;;;;;;;35.68;24.23;;;;;;;15.09;61.92;100734.06;2883403;81;21015;-80
2022/05/01 06:23:48;;;;;;;30.97;24.45;;;;;;;15.06;62.36;100733.88;2880927;82;21015;-80
2022/05/01 06:27:49;;;;;;;33.08;23.83;;;;;;;15.38;63.19;100738.52;2909156;79;20989;-80
2022/05/01 06:31:52;;;;;;;34.35;23.10;;;;;;;15.47;61.44;100739.48;2892127;80;21044;-80
2022/05/01 06:35:54;;;;;;;30.48;24.25;;;;;;;15.56;61.84;100741.26;2900295;81;21500;-80
2022/05/01 06:39:57;;;;;;;33.60;24.63;;;;;;;15.81;62.39;100744.25;2870319;81;21007;-80
2022/05/01 06:43:58;;;;;;;33.53;25.65;;;;;;;16.05;61.77;100741.05;2903701;80;20982;-79
2022/05/01 06:48:01;;;;;;;29.87;23.07;;;;;;;15.81;60.76;100741.08;2898617;80;20995;-86
2022/05/01 06:52:02;;;;;;;29.42;21.93;;;;;;;15.73;62.35;100745.50;2916960;79;21006;-80
2022/05/01 06:56:04;;;;;;;29.50;21.62;;;;;;;15.91;62.53;100740.20;2915652;80;21602;-80
2022/05/01 07:00:06;;;;;;;31.85;23.30;;;;;;;16.06;62.33;100742.73;2916039;80;21463;-80
2022/05/01 07:04:08;;;;;;;26.82;21.30;;;;;;;16.21;61.96;100745.77;2907222;80;21041;-82
2022/05/01 07:08:09;;;;;;;26.55;21.95;;;;;;;16.69;61.22;100749.05;2910003;80;21014;-82
2022/05/01 07:12:11;;;;;;;27.62;21.12;;;;;;;17.11;60.98;100746.73;2903071;80;21121;-82
2022/05/01 07:16:12;;;;;;;24.95;19.27;;;;;;;17.31;59.22;100745.17;2858708;81;21082;-82
2022/05/01 07:20:13;;;;;;;30.50;22.37;;;;;;;17.43;57.91;100741.71;2796892;84;21051;-81
2022/05/01 07:24:15;;;;;;;29.57;22.02;;;;;;;17.75;58.24;100739.67;2873338;81;21022;-82
2022/05/01 07:28:16;;;;;;;25.80;21.27;;;;;;;18.07;59.53;100744.84;2858711;81;21105;-81
2022/05/01 07:32:17;;;;;;;31.00;21.27;;;;;;;18.27;56.37;100743.20;2879344;81;21018;-80
2022/05/01 07:36:21;;;;;;;25.75;20.72;;;;;;;18.57;56.78;100742.25;2862219;81;20987;-80
2022/05/01 07:40:24;;;;;;;25.20;21.05;;;;;;;18.88;56.02;100742.08;2870585;81;21526;-81
2022/05/01 07:44:25;;;;;;;35.13;23.30;;;;;;;18.70;56.03;100737.20;2880630;81;21010;-81
2022/05/01 07:48:27;;;;;;;31.12;23.73;;;;;;;18.87;55.03;100738.55;2872714;82;20956;-81
2022/05/01 07:52:29;;;;;;;30.65;23.02;;;;;;;18.95;54.81;100737.68;2873129;81;21014;-82
2022/05/01 07:56:34;;;;;;;31.50;23.50;;;;;;;19.05;53.90;100740.23;2852307;82;21045;-81
2022/05/01 08:00:36;;;;;;;31.05;25.20;;;;;;;19.23;54.72;100735.48;2833307;82;21039;-81
2022/05/01 08:04:38;;;;;;;34.27;23.90;;;;;;;19.53;54.68;100735.74;2858505;82;21313;-81
2022/05/01 08:08:41;;;;;;;30.43;22.65;;;;;;;19.72;54.95;100729.60;2877507;81;21010;-81
2022/05/01 08:12:42;;;;;;;36.48;24.10;;;;;;;20.01;55.00;100728.66;2876463;81;21044;-81
2022/05/01 08:16:44;;;;;;;26.05;22.40;;;;;;;20.08;53.72;100730.47;2880416;81;21714;-85
2022/05/01 08:25:06;;;;;;;25.50;19.73;;;;;;;19.99;54.73;100724.77;2876765;81;21062;-81
2022/05/01 08:29:07;;;;;;;27.13;20.12;;;;;;;20.17;54.00;100725.00;2876052;81;21045;-83
2022/05/01 08:33:08;;;;;;;27.77;20.97;;;;;;;20.28;54.56;100717.85;2866817;81;20991;-84
2022/05/01 08:37:09;;;;;;;23.38;19.90;;;;;;;20.12;54.19;100716.94;2882162;81;21003;-83
2022/05/01 08:41:11;;;;;;;24.63;20.45;;;;;;;20.18;53.31;100711.83;2876491;81;21018;-83
2022/05/01 08:45:15;;;;;;;30.02;20.95;;;;;;;20.38;53.54;100703.58;2872964;81;21051;-83
2022/05/01 08:49:20;;;;;;;26.00;18.67;;;;;;;20.44;50.92;100704.73;2884607;81;21053;-81
2022/05/01 08:53:23;;;;;;;28.00;22.62;;;;;;;20.32;53.62;100704.80;2909746;80;21159;-81
2022/05/01 08:57:25;;;;;;;23.77;19.90;;;;;;;20.35;50.90;100699.89;2919714;79;21051;-81
2022/05/01 09:01:33;;;;;;;25.60;19.75;;;;;;;20.36;51.20;100704.27;2863472;80;21085;-82
2022/05/01 09:05:34;;;;;;;22.62;17.27;;;;;;;20.05;51.05;100698.42;2841518;81;21723;-82
2022/05/01 09:09:36;;;;;;;25.57;18.17;;;;;;;19.88;49.59;100703.55;2827059;81;21344;-82
2022/05/01 09:13:39;;;;;;;22.30;17.48;;;;;;;19.80;49.93;100699.86;2888206;81;21041;-81
2022/05/01 09:17:40;;;;;;;23.45;15.80;;;;;;;19.78;51.54;100705.95;2854596;81;21088;-90
2022/05/01 09:21:53;;;;;;;24.57;19.50;;;;;;;19.83;50.60;100698.67;2856210;81;21042;-81
2022/05/01 09:26:00;;;;;;;26.57;17.73;;;;;;;19.92;50.72;100697.63;2856497;81;21029;-82
2022/05/01 09:30:18;;;;;;;22.70;15.95;;;;;;;20.05;50.72;100692.17;2848419;81;21045;-81
2022/05/01 09:34:37;;;;;;;23.07;16.12;;;;;;;20.17;52.33;100696.64;2868653;80;21057;-82
2022/05/01 09:38:32;;;;;;;17.07;12.30;;;;;;;20.38;50.89;100692.77;2853038;81;21038;-83
2022/05/01 09:42:35;;;;;;;20.60;12.07;;;;;;;20.58;49.17;100689.58;2836913;82;21038;-84
2022/05/01 09:46:38;;;;;;;19.77;12.15;;;;;;;20.53;47.78;100686.06;2861121;81;21058;-82
2022/05/01 09:50:43;;;;;;;13.48;11.88;;;;;;;20.43;46.17;100685.48;2851379;81;21038;-84
2022/05/01 09:55:04;;;;;;;11.18;9.80;;;;;;;20.40;47.01;100683.97;2888911;79;21030;-84
2022/05/01 09:59:05;;;;;;;23.05;12.45;;;;;;;20.48;48.29;100680.38;2849518;81;21039;-84
2022/05/01 10:03:31;;;;;;;15.93;11.20;;;;;;;20.57;49.82;100674.91;2866437;81;21018;-83
2022/05/01 10:07:37;;;;;;;11.35;8.75;;;;;;;20.61;47.60;100678.92;2869150;81;21011;-83
2022/05/01 10:11:39;;;;;;;12.18;9.93;;;;;;;20.48;48.07;100671.44;2841624;81;21054;-83
2022/05/01 10:15:41;;;;;;;18.95;11.28;;;;;;;20.41;48.56;100677.55;2868649;81;21019;-83
2022/05/01 10:19:43;;;;;;;32.30;12.05;;;;;;;20.50;48.57;100670.74;2848971;82;21002;-84
2022/05/01 10:23:45;;;;;;;16.35;9.95;;;;;;;20.58;49.37;100661.20;2852097;81;21018;-82
2022/05/01 10:27:58;;;;;;;13.58;10.65;;;;;;;20.73;48.56;100656.34;2873214;81;21001;-83
2022/05/01 10:32:22;;;;;;;16.87;10.53;;;;;;;20.77;50.23;100659.00;2874152;81;21066;-83
2022/05/01 10:37:13;;;;;;;16.40;9.48;;;;;;;20.86;47.73;100649.83;2873332;81;21035;-83
2022/05/01 10:41:16;;;;;;;17.52;9.90;;;;;;;20.93;47.66;100652.61;2851864;82;21134;-81
2022/05/01 10:45:29;;;;;;;16.20;11.57;;;;;;;20.86;46.98;100643.57;2853916;81;20975;-81
2022/05/01 10:49:37;;;;;;;14.15;10.40;;;;;;;20.99;48.72;100642.42;2891303;81;20987;-81
2022/05/01 10:53:38;;;;;;;17.00;11.30;;;;;;;21.00;47.14;100636.48;2814353;81;21054;-81
2022/05/01 10:57:40;;;;;;;19.87;12.82;;;;;;;21.17;47.61;100635.27;2883118;81;21021;-81
2022/05/01 11:01:53;;;;;;;17.25;11.10;;;;;;;21.04;46.51;100627.83;2866011;81;20992;-81
2022/05/01 11:06:06;;;;;;;14.98;11.30;;;;;;;21.19;46.61;100628.34;2796964;84;21005;-81
2022/05/01 11:10:10;;;;;;;13.85;10.50;;;;;;;21.17;44.01;100623.10;2774502;84;23986;-81
2022/05/01 11:14:14;;;;;;;16.48;10.98;;;;;;;21.09;45.34;100624.03;2789626;84;21040;-82
2022/05/01 11:18:28;;;;;;;15.90;10.68;;;;;;;21.23;47.06;100612.91;2715588;85;21023;-83
2022/05/01 11:22:30;;;;;;;16.85;11.93;;;;;;;21.29;43.55;100611.28;2705052;85;21038;-81
2022/05/01 11:26:33;;;;;;;17.25;10.48;;;;;;;21.36;42.78;100616.78;2726450;85;21489;-88
2022/05/01 11:30:37;;;;;;;12.15;9.93;;;;;;;21.43;44.36;100608.75;2735656;85;21022;-82
2022/05/01 11:34:38;;;;;;;15.53;10.90;;;;;;;21.41;45.68;100606.22;2760265;85;21004;-81
2022/05/01 11:38:45;;;;;;;15.45;10.90;;;;;;;21.54;43.82;100607.74;2744269;85;21058;-81
2022/05/01 11:42:47;;;;;;;13.75;9.43;;;;;;;21.57;43.32;100592.15;2777604;83;21018;-81
2022/05/01 11:46:48;;;;;;;16.07;11.12;;;;;;;21.45;43.37;100585.05;2846340;81;21030;-81
2022/05/01 11:50:52;;;;;;;16.93;11.73;;;;;;;21.34;45.62;100591.79;2868098;81;21026;-81
2022/05/01 11:54:56;;;;;;;16.45;12.70;;;;;;;21.34;46.59;100590.44;2866537;81;21066;-82
2022/05/01 12:03:27;;;;;;;13.08;9.25;;;;;;;21.48;45.77;100589.57;2876282;81;21026;-84
2022/05/01 12:07:28;;;;;;;12.28;8.83;;;;;;;21.63;44.06;100587.34;2873217;80;21018;-83
2022/05/01 12:11:31;;;;;;;15.90;9.30;;;;;;;21.70;44.38;100584.22;2906675;80;21054;-83
2022/05/01 12:15:33;;;;;;;11.57;9.38;;;;;;;21.52;44.17;100585.45;2934519;81;21016;-83
2022/05/01 12:19:38;;;;;;;13.35;9.95;;;;;;;21.61;44.36;100579.91;2934155;80;21030;-83
2022/05/01 12:23:45;;;;;;;16.60;9.20;;;;;;;21.65;43.42;100581.25;2928163;80;21134;-83
2022/05/01 12:27:47;;;;;;;22.58;9.93;;;;;;;21.67;42.31;100571.89;2890579;80;21019;-86
2022/05/01 12:32:01;;;;;;;11.00;8.15;;;;;;;21.92;44.08;100567.47;2926182;79;21011;-84
2022/05/01 12:36:02;;;;;;;14.00;8.25;;;;;;;21.95;43.34;100559.45;2935372;80;20994;-83
2022/05/01 12:40:12;;;;;;;10.08;7.90;;;;;;;22.02;43.07;100561.72;2931507;81;21565;-84
2022/05/01 12:44:14;;;;;;;9.60;7.87;;;;;;;22.08;41.87;100551.45;2922409;79;21652;-85
2022/05/01 12:48:15;;;;;;;11.60;7.72;;;;;;;22.10;43.83;100553.45;2914433;79;21010;-85
2022/05/01 12:52:34;;;;;;;9.58;8.60;;;;;;;22.19;42.34;100550.58;2901135;79;21034;-84
2022/05/01 12:56:35;;;;;;;10.38;6.87;;;;;;;22.31;42.90;100535.47;2905286;79;20987;-85
2022/05/01 13:00:46;;;;;;;10.55;7.40;;;;;;;22.46;42.49;100536.71;2884399;80;21039;-83
2022/05/01 13:04:57;;;;;;;8.70;7.87;;;;;;;22.46;41.38;100539.95;2863766;82;21069;-84
2022/05/01 13:09:09;;;;;;;12.88;8.03;;;;;;;22.39;42.70;100533.95;2908030;80;21071;-84
2022/05/01 13:13:09;;;;;;;18.92;15.72;;;;;;;22.48;41.36;100533.84;2927348;80;21061;-85
2022/05/01 13:17:13;;;;;;;10.10;8.00;;;;;;;22.52;40.67;100531.05;2914627;79;21056;-84
2022/05/01 13:21:15;;;;;;;10.45;7.62;;;;;;;22.63;42.44;100526.44;2905181;80;21002;-85
2022/05/01 13:25:16;;;;;;;7.95;6.42;;;;;;;22.75;40.10;100515.01;2912535;80;21000;-84
2022/05/01 13:29:18;;;;;;;10.53;7.05;;;;;;;22.80;41.79;100513.91;2910375;79;21032;-86
2022/05/01 13:33:19;;;;;;;30.92;22.00;;;;;;;22.96;41.22;100520.86;2913182;80;20996;-85
2022/05/01 13:37:20;;;;;;;39.33;26.48;;;;;;;22.77;39.86;100514.29;2905274;80;21027;-84
2022/05/01 13:45:41;;;;;;;27.35;19.62;;;;;;;23.01;42.85;100514.83;2916208;79;20996;-83
2022/05/01 13:49:44;;;;;;;78.20;54.27;;;;;;;23.15;41.91;100511.10;2922360;80;21035;-82
2022/05/01 13:53:46;;;;;;;27.70;19.77;;;;;;;23.32;42.26;100509.41;2907752;80;20953;-82
2022/05/01 13:57:48;;;;;;;29.70;18.57;;;;;;;23.35;40.72;100500.35;2893177;81;21023;-82
2022/05/01 14:01:52;;;;;;;12.13;7.20;;;;;;;23.46;42.72;100489.41;2912321;80;21069;-85
2022/05/01 14:05:53;;;;;;;9.15;7.15;;;;;;;23.64;42.31;100487.43;2911310;79;21050;-83
2022/05/01 14:09:54;;;;;;;11.65;6.85;;;;;;;23.74;40.57;100487.02;2881340;80;21509;-82
2022/05/01 14:13:57;;;;;;;12.30;8.55;;;;;;;23.79;41.82;100482.33;2892138;80;20969;-82
2022/05/01 14:18:00;;;;;;;8.15;6.85;;;;;;;23.80;39.19;100486.71;2892926;80;21050;-82
2022/05/01 14:22:01;;;;;;;6.45;5.85;;;;;;;23.75;39.74;100474.29;2888639;80;21031;-84
2022/05/01 14:26:03;;;;;;;8.13;6.50;;;;;;;23.79;41.96;100475.03;2875223;80;21035;-84
2022/05/01 14:30:05;;;;;;;6.70;5.97;;;;;;;23.84;39.72;100477.63;2894365;80;21085;-85
2022/05/01 14:34:26;;;;;;;13.28;10.00;;;;;;;23.80;41.21;100464.48;2891457;81;21047;-82
2022/05/01 14:38:38;;;;;;;11.53;7.40;;;;;;;23.79;40.51;100460.09;2908905;81;21352;-82
2022/05/01 14:42:46;;;;;;;8.83;6.28;;;;;;;23.87;40.91;100460.91;2860812;80;21096;-82
2022/05/01 14:46:52;;;;;;;30.57;20.92;;;;;;;23.96;40.49;100455.56;2873188;81;21036;-83
2022/05/01 14:50:57;;;;;;;11.95;9.90;;;;;;;23.89;39.24;100450.16;2904815;80;21051;-84
2022/05/01 14:55:04;;;;;;;9.13;5.65;;;;;;;23.87;38.58;100445.44;2891383;80;21005;-84
2022/05/01 15:07:46;;;;;;;6.25;4.72;;;;;;;23.88;39.35;100448.50;2896743;80;21563;-84
2022/05/01 15:11:48;;;;;;;8.78;5.00;;;;;;;24.10;40.51;100447.75;2891326;81;21036;-84
2022/05/01 15:16:18;;;;;;;6.42;5.00;;;;;;;24.20;40.12;100442.41;2928455;81;21091;-85
2022/05/01 15:20:24;;;;;;;9.25;5.78;;;;;;;24.31;41.57;100451.25;2930316;79;21114;-83
2022/05/01 15:24:26;;;;;;;4.87;4.15;;;;;;;24.29;40.56;100442.48;2903219;80;21007;-84
2022/05/01 15:28:31;;;;;;;12.35;5.55;;;;;;;24.14;39.58;100444.60;2917144;79;21098;-84
2022/05/01 15:37:13;;;;;;;5.62;4.28;;;;;;;24.01;38.69;100438.13;2925136;79;21012;-84
2022/05/01 15:41:49;;;;;;;12.65;5.00;;;;;;;23.97;40.37;100446.37;2898197;80;21535;-84
2022/05/01 15:45:56;;;;;;;6.12;5.28;;;;;;;23.98;39.92;100438.56;2920889;79;21041;-84
2022/05/01 15:54:25;;;;;;;6.33;4.60;;;;;;;23.92;41.33;100433.95;2903701;81;21024;-84
2022/05/01 15:58:27;;;;;;;6.40;4.35;;;;;;;23.98;42.00;100434.48;2904052;80;21063;-84
2022/05/01 16:02:31;;;;;;;5.15;4.33;;;;;;;23.92;39.89;100429.37;2927040;79;21106;-81
2022/05/01 16:06:34;;;;;;;7.00;4.55;;;;;;;23.54;42.48;100428.11;2883037;81;21058;-81
2022/05/01 16:10:59;;;;;;;6.42;5.12;;;;;;;23.46;41.61;100431.05;2888517;80;21059;-82
2022/05/01 16:15:10;;;;;;;8.47;6.00;;;;;;;23.43;41.92;100426.55;2920816;79;21089;-81
2022/05/01 16:19:59;;;;;;;9.95;5.33;;;;;;;23.37;40.18;100421.42;2886181;81;21027;-81
2022/05/01 16:24:24;;;;;;;4.65;4.20;;;;;;;23.38;40.03;100420.37;2900535;80;21106;-81
2022/05/01 16:28:30;;;;;;;7.67;5.67;;;;;;;23.41;39.89;100419.14;2858486;81;21062;-82
2022/05/01 16:33:06;;;;;;;8.95;5.92;;;;;;;23.49;41.98;100417.05;2896588;82;21048;-84
2022/05/01 16:37:13;;;;;;;6.65;5.03;;;;;;;23.51;42.10;100421.75;2926490;79;21014;-86
2022/05/01 16:41:16;;;;;;;11.60;5.58;;;;;;;23.52;41.74;100419.88;2878623;81;21076;-84
2022/05/01 16:45:26;;;;;;;12.73;5.28;;;;;;;23.51;41.34;100415.50;2844243;81;21042;-85
2022/05/01 16:49:27;;;;;;;6.80;4.12;;;;;;;23.45;41.00;100415.80;2882945;82;21020;-87
2022/05/01 16:53:30;;;;;;;8.38;5.00;;;;;;;23.41;42.04;100416.42;2894365;80;21546;-85
2022/05/01 16:57:38;;;;;;;5.53;4.45;;;;;;;23.34;43.00;100422.69;2924800;79;21321;-84
2022/05/01 17:01:45;;;;;;;6.03;4.10;;;;;;;23.31;42.19;100424.47;2899825;80;21000;-84
2022/05/01 17:06:11;;;;;;;5.00;3.92;;;;;;;23.08;42.36;100424.27;2929172;81;21103;-83
2022/05/01 17:10:53;;;;;;;5.37;4.75;;;;;;;22.83;43.80;100430.80;2915983;81;21555;-85
2022/05/01 17:15:14;;;;;;;6.00;5.08;;;;;;;22.64;44.28;100425.09;2902204;80;21060;-83
2022/05/01 17:19:27;;;;;;;7.97;4.90;;;;;;;22.44;45.69;100429.56;2928635;81;21003;-85
2022/05/01 17:23:30;;;;;;;5.55;5.05;;;;;;;22.21;46.65;100430.70;2897352;80;21063;-86
2022/05/01 17:27:43;;;;;;;6.65;5.00;;;;;;;22.05;48.72;100430.47;2926440;81;21126;-92
2022/05/01 17:31:52;;;;;;;8.00;5.72;;;;;;;21.90;49.25;100430.59;2929471;78;21027;-84
2022/05/01 17:35:57;;;;;;;9.58;6.83;;;;;;;21.79;50.94;100434.14;2923976;79;21094;-86
2022/05/01 17:39:59;;;;;;;11.40;6.65;;;;;;;21.65;51.48;100436.44;2927862;80;21134;-87
2022/05/01 17:44:02;;;;;;;7.78;6.60;;;;;;;21.38;53.26;100434.30;2903507;80;21046;-85
2022/05/01 17:48:05;;;;;;;7.35;6.50;;;;;;;21.21;53.60;100436.94;2918706;80;21091;-87
2022/05/01 17:52:08;;;;;;;8.20;6.58;;;;;;;21.07;55.14;100439.49;2914205;80;21008;-81
2022/05/01 17:56:10;;;;;;;9.75;6.92;;;;;;;20.91;56.75;100444.63;2923990;79;21024;-82
2022/05/01 18:00:17;;;;;;;8.70;7.10;;;;;;;20.65;55.38;100445.96;2908302;80;21083;-82
2022/05/01 18:14:27;;;;;;;11.25;6.22;;;;;;;19.92;53.08;100446.58;2886290;79;21079;-83
2022/05/01 18:19:14;;;;;;;11.22;6.53;;;;;;;19.73;52.67;100456.02;2910811;80;21070;-82
2022/05/01 18:23:41;;;;;;;8.18;6.97;;;;;;;19.52;51.96;100463.42;2920314;80;21024;-88
2022/05/01 18:28:03;;;;;;;11.65;7.17;;;;;;;19.23;52.87;100472.56;2909976;79;21035;-86
2022/05/01 18:32:12;;;;;;;8.18;6.67;;;;;;;18.98;49.91;100478.10;2920436;80;21007;-86
2022/05/01 18:36:17;;;;;;;13.60;8.95;;;;;;;18.77;48.05;100483.23;2903990;80;21583;-86
2022/05/01 18:40:18;;;;;;;7.70;7.00;;;;;;;18.57;48.07;100483.64;2917484;79;21091;-86
2022/05/01 18:44:24;;;;;;;7.87;7.08;;;;;;;18.41;47.55;100490.75;2908705;79;21099;-88
2022/05/01 18:48:29;;;;;;;;;;;;;;;18.25;47.47;100489.44;2891651;80;21051;-88
2022/05/01 18:52:31;;;;;;;10.20;6.90;;;;;;;18.13;47.61;100494.34;2920900;80;20130;-88
2022/05/01 18:56:40;;;;;;;7.97;6.90;;;;;;;18.05;47.37;100499.23;2917059;80;21023;-90
2022/05/01 19:00:42;;;;;;;7.55;6.83;;;;;;;17.97;47.67;100497.87;2870234;80;21600;-81
2022/05/01 19:04:44;;;;;;;8.68;6.67;;;;;;;17.87;48.01;100503.42;2924002;81;21020;-79
2022/05/01 19:09:12;;;;;;;9.08;7.03;;;;;;;17.72;48.15;100508.64;2883295;80;21022;-82
2022/05/01 19:13:35;;;;;;;9.55;6.28;;;;;;;17.61;48.71;100511.65;2919612;79;21020;-82
2022/05/01 19:18:11;;;;;;;9.60;7.45;;;;;;;17.48;48.51;100510.28;2872624;81;21019;-81
2022/05/01 19:22:53;;;;;;;10.63;6.55;;;;;;;17.37;48.70;100513.30;2928524;80;21007;-80
2022/05/01 19:27:06;;;;;;;11.12;7.12;;;;;;;17.25;48.66;100516.28;2837928;81;21016;-81
2022/05/01 19:31:27;;;;;;;10.78;7.12;;;;;;;17.18;48.76;100518.45;2860765;81;21539;-82
2022/05/01 19:35:46;;;;;;;18.82;8.48;;;;;;;17.13;48.62;100523.81;2829431;82;21148;-82
2022/05/01 19:40:14;;;;;;;10.65;8.23;;;;;;;17.03;48.88;100523.12;2834039;82;21039;-80
2022/05/01 19:44:23;;;;;;;12.00;8.13;;;;;;;16.94;49.13;100526.25;2834976;83;21019;-82